sensor_id;sensor_type;location;lat;lon;timestamp;pressure;altitude;pressure_sealevel;temperature;humidity
66176;BME280;52977;44.816;20.538;2023-07-22T00:01:12;99391.63;;;24.10;83.82
66176;BME280;52977;44.816;20.538;2023-07-22T00:03:38;99402.66;;;24.17;83.05
66176;BME280;52977;44.816;20.538;2023-07-22T00:06:09;99384.81;;;24.11;82.26
66176;BME280;52977;44.816;20.538;2023-07-22T00:08:36;99355.38;;;24.10;82.57
66176;BME280;52977;44.816;20.538;2023-07-22T00:11:04;99371.69;;;24.12;82.92
66176;BME280;52977;44.816;20.538;2023-07-22T00:13:31;99337.25;;;23.98;81.31
66176;BME280;52977;44.816;20.538;2023-07-22T00:15:58;99332.81;;;24.01;80.21
66176;BME280;52977;44.816;20.538;2023-07-22T00:18:26;99400.97;;;24.23;80.01
66176;BME280;52977;44.816;20.538;2023-07-22T00:20:54;99389.16;;;24.16;80.73
66176;BME280;52977;44.816;20.538;2023-07-22T00:23:20;99413.41;;;24.19;81.72
66176;BME280;52977;44.816;20.538;2023-07-22T00:25:47;99386.94;;;24.03;81.28
66176;BME280;52977;44.816;20.538;2023-07-22T00:28:13;99413.66;;;24.28;81.36
66176;BME280;52977;44.816;20.538;2023-07-22T00:30:40;99435.97;;;24.28;81.37
66176;BME280;52977;44.816;20.538;2023-07-22T00:33:08;99416.97;;;24.19;80.75
66176;BME280;52977;44.816;20.538;2023-07-22T00:35:34;99361.31;;;23.85;81.15
66176;BME280;52977;44.816;20.538;2023-07-22T00:38:01;99432.03;;;24.26;81.27
66176;BME280;52977;44.816;20.538;2023-07-22T00:40:28;99418.19;;;24.18;80.59
66176;BME280;52977;44.816;20.538;2023-07-22T00:42:57;99443.72;;;24.17;81.84
66176;BME280;52977;44.816;20.538;2023-07-22T00:45:25;99410.09;;;24.00;82.65
66176;BME280;52977;44.816;20.538;2023-07-22T00:47:50;99403.13;;;23.85;84.05
66176;BME280;52977;44.816;20.538;2023-07-22T00:50:16;99386.13;;;23.76;85.14
66176;BME280;52977;44.816;20.538;2023-07-22T00:52:42;99416.13;;;23.95;85.58
66176;BME280;52977;44.816;20.538;2023-07-22T00:55:08;99385.81;;;23.70;87.33
66176;BME280;52977;44.816;20.538;2023-07-22T00:57:36;99410.47;;;23.71;88.24
66176;BME280;52977;44.816;20.538;2023-07-22T01:00:02;99377.81;;;23.72;90.43
66176;BME280;52977;44.816;20.538;2023-07-22T01:02:29;99321.31;;;23.71;89.31
66176;BME280;52977;44.816;20.538;2023-07-22T01:04:54;99298.25;;;23.71;89.94
66176;BME280;52977;44.816;20.538;2023-07-22T01:07:20;99286.25;;;23.47;97.50
66176;BME280;52977;44.816;20.538;2023-07-22T01:09:47;99317.69;;;23.47;97.16
66176;BME280;52977;44.816;20.538;2023-07-22T01:12:13;99323.28;;;23.44;94.83
66176;BME280;52977;44.816;20.538;2023-07-22T01:14:41;99385.75;;;23.43;93.32
66176;BME280;52977;44.816;20.538;2023-07-22T01:17:08;99369.13;;;23.01;94.75
66176;BME280;52977;44.816;20.538;2023-07-22T01:19:35;99495.03;;;23.54;96.08
66176;BME280;52977;44.816;20.538;2023-07-22T01:22:05;99476.34;;;23.54;95.20
66176;BME280;52977;44.816;20.538;2023-07-22T01:24:34;99537.31;;;23.49;95.85
66176;BME280;52977;44.816;20.538;2023-07-22T01:27:00;99508.31;;;23.43;96.64
66176;BME280;52977;44.816;20.538;2023-07-22T01:29:26;99478.94;;;23.38;96.28
66176;BME280;52977;44.816;20.538;2023-07-22T01:31:54;99483.22;;;23.46;94.98
66176;BME280;52977;44.816;20.538;2023-07-22T01:34:21;99437.84;;;23.11;95.70
66176;BME280;52977;44.816;20.538;2023-07-22T01:36:48;99447.63;;;23.27;96.70
66176;BME280;52977;44.816;20.538;2023-07-22T01:39:15;99452.88;;;23.21;96.92
66176;BME280;52977;44.816;20.538;2023-07-22T01:41:42;99426.19;;;23.24;97.04
66176;BME280;52977;44.816;20.538;2023-07-22T01:44:09;99394.34;;;23.25;96.30
66176;BME280;52977;44.816;20.538;2023-07-22T01:46:35;99407.94;;;23.19;99.02
66176;BME280;52977;44.816;20.538;2023-07-22T01:49:05;99424.59;;;23.23;97.99
66176;BME280;52977;44.816;20.538;2023-07-22T01:51:32;99433.75;;;23.23;96.57
66176;BME280;52977;44.816;20.538;2023-07-22T01:53:58;99440.38;;;23.33;94.89
66176;BME280;52977;44.816;20.538;2023-07-22T01:56:25;99431.25;;;23.32;95.32
66176;BME280;52977;44.816;20.538;2023-07-22T01:58:50;99389.78;;;23.03;96.52
66176;BME280;52977;44.816;20.538;2023-07-22T02:01:16;99444.47;;;23.25;96.46
66176;BME280;52977;44.816;20.538;2023-07-22T02:03:43;99388.41;;;22.84;96.95
66176;BME280;52977;44.816;20.538;2023-07-22T02:06:09;99471.50;;;23.28;96.40
66176;BME280;52977;44.816;20.538;2023-07-22T02:08:35;99487.25;;;23.42;95.94
66176;BME280;52977;44.816;20.538;2023-07-22T02:11:07;99463.88;;;23.32;95.61
66176;BME280;52977;44.816;20.538;2023-07-22T02:13:35;99447.28;;;23.21;95.15
66176;BME280;52977;44.816;20.538;2023-07-22T02:16:02;99376.03;;;22.89;94.45
66176;BME280;52977;44.816;20.538;2023-07-22T02:18:29;99447.56;;;23.30;95.29
66176;BME280;52977;44.816;20.538;2023-07-22T02:20:56;99458.72;;;23.30;95.72
66176;BME280;52977;44.816;20.538;2023-07-22T02:23:23;99439.28;;;23.27;95.93
66176;BME280;52977;44.816;20.538;2023-07-22T02:25:50;99404.66;;;23.28;96.65
66176;BME280;52977;44.816;20.538;2023-07-22T02:28:17;99420.88;;;22.98;98.95
66176;BME280;52977;44.816;20.538;2023-07-22T02:30:48;99432.78;;;22.99;99.57
66176;BME280;52977;44.816;20.538;2023-07-22T02:33:15;99386.25;;;22.61;99.83
66176;BME280;52977;44.816;20.538;2023-07-22T02:35:41;99481.63;;;23.07;98.82
66176;BME280;52977;44.816;20.538;2023-07-22T02:38:08;99477.66;;;23.04;99.68
66176;BME280;52977;44.816;20.538;2023-07-22T02:40:35;99488.72;;;23.15;99.12
66176;BME280;52977;44.816;20.538;2023-07-22T02:43:01;99481.53;;;23.18;98.33
66176;BME280;52977;44.816;20.538;2023-07-22T02:45:27;99492.22;;;23.23;98.09
66176;BME280;52977;44.816;20.538;2023-07-22T02:47:53;99495.91;;;23.09;99.62
66176;BME280;52977;44.816;20.538;2023-07-22T02:50:19;99490.03;;;23.00;98.99
66176;BME280;52977;44.816;20.538;2023-07-22T02:52:46;99490.25;;;22.75;100.00
66176;BME280;52977;44.816;20.538;2023-07-22T02:55:16;99503.84;;;22.62;100.00
66176;BME280;52977;44.816;20.538;2023-07-22T02:57:45;99558.09;;;22.92;100.00
66176;BME280;52977;44.816;20.538;2023-07-22T03:00:13;99593.91;;;22.86;100.00
66176;BME280;52977;44.816;20.538;2023-07-22T03:02:40;99635.59;;;22.90;100.00
66176;BME280;52977;44.816;20.538;2023-07-22T03:05:07;99583.25;;;22.74;100.00
66176;BME280;52977;44.816;20.538;2023-07-22T03:07:34;99567.09;;;22.54;100.00
66176;BME280;52977;44.816;20.538;2023-07-22T03:10:00;99611.97;;;22.56;100.00
66176;BME280;52977;44.816;20.538;2023-07-22T03:12:26;99574.41;;;22.15;100.00
66176;BME280;52977;44.816;20.538;2023-07-22T03:14:52;99562.16;;;22.06;100.00
66176;BME280;52977;44.816;20.538;2023-07-22T03:17:18;99611.28;;;22.34;100.00
66176;BME280;52977;44.816;20.538;2023-07-22T03:19:44;99639.06;;;22.45;100.00
66176;BME280;52977;44.816;20.538;2023-07-22T03:22:13;99627.59;;;22.35;100.00
66176;BME280;52977;44.816;20.538;2023-07-22T03:24:39;99603.78;;;22.27;100.00
66176;BME280;52977;44.816;20.538;2023-07-22T03:27:06;99617.22;;;22.47;100.00
66176;BME280;52977;44.816;20.538;2023-07-22T03:29:32;99615.22;;;22.44;100.00
66176;BME280;52977;44.816;20.538;2023-07-22T03:31:58;99516.59;;;21.89;100.00
66176;BME280;52977;44.816;20.538;2023-07-22T03:34:29;99590.53;;;22.53;100.00
66176;BME280;52977;44.816;20.538;2023-07-22T03:36:56;99586.56;;;22.54;100.00
66176;BME280;52977;44.816;20.538;2023-07-22T03:39:23;99580.13;;;22.64;100.00
66176;BME280;52977;44.816;20.538;2023-07-22T03:41:49;99574.53;;;22.72;100.00
66176;BME280;52977;44.816;20.538;2023-07-22T03:44:14;99562.25;;;22.69;100.00
66176;BME280;52977;44.816;20.538;2023-07-22T03:46:40;99536.88;;;22.56;100.00
66176;BME280;52977;44.816;20.538;2023-07-22T03:49:06;99520.59;;;22.58;100.00
66176;BME280;52977;44.816;20.538;2023-07-22T03:51:32;99483.94;;;22.70;100.00
66176;BME280;52977;44.816;20.538;2023-07-22T03:53:59;99454.97;;;22.64;100.00
66176;BME280;52977;44.816;20.538;2023-07-22T03:56:25;99428.16;;;22.40;100.00
66176;BME280;52977;44.816;20.538;2023-07-22T03:58:52;99489.44;;;22.78;100.00
66176;BME280;52977;44.816;20.538;2023-07-22T04:01:19;99456.00;;;22.81;100.00
66176;BME280;52977;44.816;20.538;2023-07-22T04:03:45;99477.91;;;22.76;100.00
66176;BME280;52977;44.816;20.538;2023-07-22T04:06:11;99505.31;;;22.81;100.00
66176;BME280;52977;44.816;20.538;2023-07-22T04:08:36;99501.69;;;22.84;100.00
66176;BME280;52977;44.816;20.538;2023-07-22T04:11:02;99466.34;;;22.81;100.00
66176;BME280;52977;44.816;20.538;2023-07-22T04:13:29;99446.44;;;22.86;100.00
66176;BME280;52977;44.816;20.538;2023-07-22T04:15:55;99445.06;;;22.60;100.00
66176;BME280;52977;44.816;20.538;2023-07-22T04:18:21;99458.84;;;22.74;100.00
66176;BME280;52977;44.816;20.538;2023-07-22T04:20:47;99464.75;;;22.80;100.00
66176;BME280;52977;44.816;20.538;2023-07-22T04:23:16;99431.72;;;22.40;100.00
66176;BME280;52977;44.816;20.538;2023-07-22T04:25:43;99461.63;;;22.78;100.00
66176;BME280;52977;44.816;20.538;2023-07-22T04:28:11;99472.75;;;22.78;100.00
66176;BME280;52977;44.816;20.538;2023-07-22T04:30:38;99444.41;;;22.45;100.00
66176;BME280;52977;44.816;20.538;2023-07-22T04:33:05;99501.53;;;22.57;100.00
66176;BME280;52977;44.816;20.538;2023-07-22T04:35:32;99526.09;;;22.65;100.00
66176;BME280;52977;44.816;20.538;2023-07-22T04:37:58;99559.81;;;22.75;100.00
66176;BME280;52977;44.816;20.538;2023-07-22T04:40:25;99568.56;;;22.73;100.00
66176;BME280;52977;44.816;20.538;2023-07-22T04:42:51;99579.69;;;22.73;100.00
66176;BME280;52977;44.816;20.538;2023-07-22T04:45:18;99484.72;;;22.11;100.00
66176;BME280;52977;44.816;20.538;2023-07-22T04:47:44;99580.13;;;22.68;100.00
66176;BME280;52977;44.816;20.538;2023-07-22T04:50:13;99593.16;;;22.78;100.00
66176;BME280;52977;44.816;20.538;2023-07-22T04:52:42;99591.25;;;22.68;100.00
66176;BME280;52977;44.816;20.538;2023-07-22T04:55:10;99590.44;;;22.71;100.00
66176;BME280;52977;44.816;20.538;2023-07-22T04:57:36;99558.69;;;22.61;100.00
66176;BME280;52977;44.816;20.538;2023-07-22T05:00:03;99597.94;;;22.78;100.00
66176;BME280;52977;44.816;20.538;2023-07-22T05:02:30;99569.06;;;22.57;100.00
66176;BME280;52977;44.816;20.538;2023-07-22T05:04:57;99571.47;;;22.55;100.00
66176;BME280;52977;44.816;20.538;2023-07-22T05:07:23;99589.59;;;22.78;100.00
66176;BME280;52977;44.816;20.538;2023-07-22T05:09:49;99599.44;;;22.90;100.00
66176;BME280;52977;44.816;20.538;2023-07-22T05:12:17;99610.19;;;22.87;100.00
66176;BME280;52977;44.816;20.538;2023-07-22T05:14:46;99607.00;;;22.85;100.00
66176;BME280;52977;44.816;20.538;2023-07-22T05:17:12;99620.50;;;22.91;100.00
66176;BME280;52977;44.816;20.538;2023-07-22T05:19:38;99616.50;;;22.95;100.00
66176;BME280;52977;44.816;20.538;2023-07-22T05:22:04;99627.63;;;22.95;100.00
66176;BME280;52977;44.816;20.538;2023-07-22T05:24:30;99593.97;;;22.75;100.00
66176;BME280;52977;44.816;20.538;2023-07-22T05:26:56;99607.34;;;22.98;100.00
66176;BME280;52977;44.816;20.538;2023-07-22T05:29:22;99592.25;;;22.96;100.00
66176;BME280;52977;44.816;20.538;2023-07-22T05:31:47;99590.78;;;22.77;100.00
66176;BME280;52977;44.816;20.538;2023-07-22T05:34:13;99633.94;;;22.99;100.00
66176;BME280;52977;44.816;20.538;2023-07-22T05:36:39;99628.44;;;22.96;100.00
66176;BME280;52977;44.816;20.538;2023-07-22T05:39:05;99636.72;;;23.03;100.00
66176;BME280;52977;44.816;20.538;2023-07-22T05:41:33;99617.34;;;22.89;100.00
66176;BME280;52977;44.816;20.538;2023-07-22T05:43:59;99643.47;;;23.06;100.00
66176;BME280;52977;44.816;20.538;2023-07-22T05:46:25;99620.44;;;22.98;100.00
66176;BME280;52977;44.816;20.538;2023-07-22T05:48:51;99641.06;;;23.08;100.00
66176;BME280;52977;44.816;20.538;2023-07-22T05:51:18;99603.47;;;22.81;100.00
66176;BME280;52977;44.816;20.538;2023-07-22T05:53:44;99617.72;;;22.91;100.00
66176;BME280;52977;44.816;20.538;2023-07-22T05:56:10;99653.78;;;23.05;100.00
66176;BME280;52977;44.816;20.538;2023-07-22T05:58:36;99654.66;;;22.98;100.00
66176;BME280;52977;44.816;20.538;2023-07-22T06:01:02;99673.75;;;22.96;100.00
66176;BME280;52977;44.816;20.538;2023-07-22T06:03:28;99676.16;;;22.94;100.00
66176;BME280;52977;44.816;20.538;2023-07-22T06:05:55;99648.03;;;22.74;100.00
66176;BME280;52977;44.816;20.538;2023-07-22T06:08:21;99633.81;;;22.65;100.00
66176;BME280;52977;44.816;20.538;2023-07-22T06:10:47;99673.75;;;22.96;100.00
66176;BME280;52977;44.816;20.538;2023-07-22T06:13:13;99621.09;;;22.64;100.00
66176;BME280;52977;44.816;20.538;2023-07-22T06:15:39;99639.69;;;22.74;100.00
66176;BME280;52977;44.816;20.538;2023-07-22T06:18:05;99663.13;;;22.77;100.00
66176;BME280;52977;44.816;20.538;2023-07-22T06:20:35;99622.69;;;22.61;100.00
66176;BME280;52977;44.816;20.538;2023-07-22T06:23:02;99657.94;;;22.82;100.00
66176;BME280;52977;44.816;20.538;2023-07-22T06:25:28;99665.03;;;22.91;100.00
66176;BME280;52977;44.816;20.538;2023-07-22T06:27:54;99672.19;;;22.92;100.00
66176;BME280;52977;44.816;20.538;2023-07-22T06:30:21;99671.38;;;22.95;100.00
66176;BME280;52977;44.816;20.538;2023-07-22T06:32:46;99643.66;;;22.77;100.00
66176;BME280;52977;44.816;20.538;2023-07-22T06:35:12;99626.22;;;22.69;100.00
66176;BME280;52977;44.816;20.538;2023-07-22T06:37:38;99643.66;;;22.77;100.00
66176;BME280;52977;44.816;20.538;2023-07-22T06:40:06;99676.97;;;22.87;100.00
66176;BME280;52977;44.816;20.538;2023-07-22T06:42:32;99674.16;;;22.91;100.00
66176;BME280;52977;44.816;20.538;2023-07-22T06:44:58;99674.19;;;22.87;100.00
66176;BME280;52977;44.816;20.538;2023-07-22T06:47:25;99669.72;;;23.04;100.00
66176;BME280;52977;44.816;20.538;2023-07-22T06:49:51;99665.34;;;23.03;100.00
66176;BME280;52977;44.816;20.538;2023-07-22T06:52:17;99697.94;;;23.14;100.00
66176;BME280;52977;44.816;20.538;2023-07-22T06:54:42;99673.22;;;23.19;100.00
66176;BME280;52977;44.816;20.538;2023-07-22T06:57:09;99642.66;;;23.09;100.00
66176;BME280;52977;44.816;20.538;2023-07-22T06:59:35;99680.34;;;23.20;100.00
66176;BME280;52977;44.816;20.538;2023-07-22T07:02:02;99644.25;;;23.06;100.00
66176;BME280;52977;44.816;20.538;2023-07-22T07:04:28;99667.25;;;23.21;100.00
66176;BME280;52977;44.816;20.538;2023-07-22T07:06:54;99666.50;;;23.13;100.00
66176;BME280;52977;44.816;20.538;2023-07-22T07:09:20;99670.03;;;23.17;100.00
66176;BME280;52977;44.816;20.538;2023-07-22T07:11:46;99593.22;;;22.67;100.00
66176;BME280;52977;44.816;20.538;2023-07-22T07:14:12;99641.16;;;22.93;100.00
66176;BME280;52977;44.816;20.538;2023-07-22T07:16:38;99655.34;;;23.13;100.00
66176;BME280;52977;44.816;20.538;2023-07-22T07:19:04;99691.47;;;23.24;100.00
66176;BME280;52977;44.816;20.538;2023-07-22T07:21:30;99646.31;;;22.95;100.00
66176;BME280;52977;44.816;20.538;2023-07-22T07:23:57;99688.63;;;23.31;100.00
66176;BME280;52977;44.816;20.538;2023-07-22T07:26:23;99688.56;;;23.42;100.00
66176;BME280;52977;44.816;20.538;2023-07-22T07:28:49;99628.38;;;22.99;100.00
66176;BME280;52977;44.816;20.538;2023-07-22T07:31:18;99642.66;;;23.12;100.00
66176;BME280;52977;44.816;20.538;2023-07-22T07:33:45;99676.31;;;23.32;100.00
66176;BME280;52977;44.816;20.538;2023-07-22T07:36:11;99673.53;;;23.29;100.00
66176;BME280;52977;44.816;20.538;2023-07-22T07:38:37;99497.41;;;22.16;100.00
66176;BME280;52977;44.816;20.538;2023-07-22T07:41:04;99686.94;;;23.45;100.00
66176;BME280;52977;44.816;20.538;2023-07-22T07:43:30;99661.13;;;23.37;100.00
66176;BME280;52977;44.816;20.538;2023-07-22T07:46:13;99696.19;;;23.80;100.00
66176;BME280;52977;44.816;20.538;2023-07-22T07:48:40;99660.38;;;23.78;100.00
66176;BME280;52977;44.816;20.538;2023-07-22T07:51:06;99680.78;;;24.10;100.00
66176;BME280;52977;44.816;20.538;2023-07-22T07:53:32;99694.91;;;24.30;100.00
66176;BME280;52977;44.816;20.538;2023-07-22T07:55:58;99698.13;;;24.28;98.49
66176;BME280;52977;44.816;20.538;2023-07-22T07:58:25;99683.13;;;24.15;93.56
66176;BME280;52977;44.816;20.538;2023-07-22T08:00:51;99692.81;;;24.03;96.35
66176;BME280;52977;44.816;20.538;2023-07-22T08:03:17;99684.97;;;23.91;97.33
66176;BME280;52977;44.816;20.538;2023-07-22T08:05:43;99667.31;;;23.59;98.24
66176;BME280;52977;44.816;20.538;2023-07-22T08:08:09;99685.13;;;23.72;99.87
66176;BME280;52977;44.816;20.538;2023-07-22T08:10:36;99694.16;;;23.84;99.23
66176;BME280;52977;44.816;20.538;2023-07-22T08:13:02;99634.75;;;23.52;97.10
66176;BME280;52977;44.816;20.538;2023-07-22T08:15:29;99696.81;;;24.02;100.00
66176;BME280;52977;44.816;20.538;2023-07-22T08:17:55;99665.53;;;23.80;100.00
66176;BME280;52977;44.816;20.538;2023-07-22T08:20:21;99687.75;;;23.91;99.24
66176;BME280;52977;44.816;20.538;2023-07-22T08:22:47;99707.91;;;24.05;98.32
66176;BME280;52977;44.816;20.538;2023-07-22T08:25:13;99668.75;;;23.75;99.31
66176;BME280;52977;44.816;20.538;2023-07-22T08:27:39;99709.56;;;23.99;97.54
66176;BME280;52977;44.816;20.538;2023-07-22T08:30:06;99701.63;;;23.98;99.91
66176;BME280;52977;44.816;20.538;2023-07-22T08:32:33;99719.88;;;24.02;100.00
66176;BME280;52977;44.816;20.538;2023-07-22T08:34:59;99712.69;;;24.05;99.36
66176;BME280;52977;44.816;20.538;2023-07-22T08:37:25;99695.41;;;23.79;100.00
66176;BME280;52977;44.816;20.538;2023-07-22T08:39:52;99698.16;;;23.83;99.31
66176;BME280;52977;44.816;20.538;2023-07-22T08:42:19;99706.84;;;23.92;98.44
66176;BME280;52977;44.816;20.538;2023-07-22T08:44:48;99721.09;;;24.01;97.96
66176;BME280;52977;44.816;20.538;2023-07-22T08:47:16;99709.50;;;24.06;98.67
66176;BME280;52977;44.816;20.538;2023-07-22T08:49:51;99588.72;;;23.37;95.68
66176;BME280;52977;44.816;20.538;2023-07-22T08:52:17;99712.59;;;24.16;95.79
66176;BME280;52977;44.816;20.538;2023-07-22T08:54:44;99692.75;;;24.06;97.71
66176;BME280;52977;44.816;20.538;2023-07-22T08:57:11;99686.44;;;24.02;98.33
66176;BME280;52977;44.816;20.538;2023-07-22T08:59:38;99679.25;;;24.01;98.95
66176;BME280;52977;44.816;20.538;2023-07-22T09:02:04;99680.31;;;24.15;98.59
66176;BME280;52977;44.816;20.538;2023-07-22T09:04:31;99696.13;;;24.25;97.40
66176;BME280;52977;44.816;20.538;2023-07-22T09:06:57;99706.84;;;24.30;97.91
66176;BME280;52977;44.816;20.538;2023-07-22T09:09:24;99714.34;;;24.37;99.26
66176;BME280;52977;44.816;20.538;2023-07-22T09:11:51;99700.06;;;24.31;94.32
66176;BME280;52977;44.816;20.538;2023-07-22T09:14:19;99701.06;;;24.48;94.07
66176;BME280;52977;44.816;20.538;2023-07-22T09:16:46;99705.47;;;24.46;93.71
66176;BME280;52977;44.816;20.538;2023-07-22T09:19:12;99627.63;;;23.93;93.55
66176;BME280;52977;44.816;20.538;2023-07-22T09:21:39;99714.13;;;24.55;92.45
66176;BME280;52977;44.816;20.538;2023-07-22T09:24:23;99695.38;;;24.55;92.42
66176;BME280;52977;44.816;20.538;2023-07-22T09:26:50;99676.38;;;24.47;93.68
66176;BME280;52977;44.816;20.538;2023-07-22T09:29:17;99720.72;;;24.72;93.59
66176;BME280;52977;44.816;20.538;2023-07-22T09:31:53;99719.03;;;24.78;94.20
66176;BME280;52977;44.816;20.538;2023-07-22T09:34:20;99727.72;;;24.84;92.95
66176;BME280;52977;44.816;20.538;2023-07-22T09:36:51;99717.56;;;24.70;92.40
66176;BME280;52977;44.816;20.538;2023-07-22T09:39:18;99731.56;;;24.66;92.59
66176;BME280;52977;44.816;20.538;2023-07-22T09:41:44;99716.94;;;24.51;92.40
66176;BME280;52977;44.816;20.538;2023-07-22T09:44:11;99722.94;;;24.50;93.98
66176;BME280;52977;44.816;20.538;2023-07-22T09:46:38;99716.84;;;24.58;94.17
66176;BME280;52977;44.816;20.538;2023-07-22T09:49:06;99707.97;;;24.71;94.11
66176;BME280;52977;44.816;20.538;2023-07-22T09:51:35;99708.56;;;24.86;92.27
66176;BME280;52977;44.816;20.538;2023-07-22T09:54:03;99723.44;;;25.06;89.73
66176;BME280;52977;44.816;20.538;2023-07-22T09:56:30;99719.41;;;25.07;89.01
66176;BME280;52977;44.816;20.538;2023-07-22T09:58:58;99726.75;;;24.98;91.24
66176;BME280;52977;44.816;20.538;2023-07-22T10:01:25;99732.84;;;24.89;91.43
66176;BME280;52977;44.816;20.538;2023-07-22T10:03:54;99731.00;;;24.79;92.72
66176;BME280;52977;44.816;20.538;2023-07-22T10:06:28;99729.38;;;24.81;92.38
66176;BME280;52977;44.816;20.538;2023-07-22T10:09:01;99705.19;;;24.71;89.58
66176;BME280;52977;44.816;20.538;2023-07-22T10:11:28;99726.09;;;24.86;nan
66176;BME280;52977;44.816;20.538;2023-07-22T10:13:55;99704.63;;;24.83;88.45
66176;BME280;52977;44.816;20.538;2023-07-22T10:16:22;99674.47;;;24.71;86.67
66176;BME280;52977;44.816;20.538;2023-07-22T10:18:48;99721.09;;;25.05;86.17
66176;BME280;52977;44.816;20.538;2023-07-22T10:21:15;99632.03;;;24.56;87.88
66176;BME280;52977;44.816;20.538;2023-07-22T10:23:42;99717.59;;;25.24;89.40
66176;BME280;52977;44.816;20.538;2023-07-22T10:26:11;99683.03;;;25.15;88.56
66176;BME280;52977;44.816;20.538;2023-07-22T10:28:40;99707.06;;;25.36;85.26
66176;BME280;52977;44.816;20.538;2023-07-22T10:31:06;99723.06;;;25.32;88.26
66176;BME280;52977;44.816;20.538;2023-07-22T10:33:34;99659.09;;;24.86;84.45
66176;BME280;52977;44.816;20.538;2023-07-22T10:36:12;99697.00;;;25.15;85.27
66176;BME280;52977;44.816;20.538;2023-07-22T10:38:39;99684.34;;;25.06;84.05
66176;BME280;52977;44.816;20.538;2023-07-22T10:41:15;99676.41;;;25.05;84.50
66176;BME280;52977;44.816;20.538;2023-07-22T10:43:58;99673.19;;;25.06;83.08
66176;BME280;52977;44.816;20.538;2023-07-22T10:46:58;99714.19;;;25.40;84.23
66176;BME280;52977;44.816;20.538;2023-07-22T10:49:29;99693.81;;;25.13;85.45
66176;BME280;52977;44.816;20.538;2023-07-22T10:52:11;99719.88;;;25.33;85.85
66176;BME280;52977;44.816;20.538;2023-07-22T10:54:38;99727.69;;;25.46;84.31
66176;BME280;52977;44.816;20.538;2023-07-22T10:59:52;99698.28;;;25.37;83.33
66176;BME280;52977;44.816;20.538;2023-07-22T11:02:25;99683.91;;;25.35;82.97
66176;BME280;52977;44.816;20.538;2023-07-22T11:04:52;99712.13;;;25.68;81.50
66176;BME280;52977;44.816;20.538;2023-07-22T11:07:42;99707.63;;;25.74;81.86
66176;BME280;52977;44.816;20.538;2023-07-22T11:10:14;99717.59;;;25.75;80.63
66176;BME280;52977;44.816;20.538;2023-07-22T11:12:45;99685.25;;;25.51;80.36
66176;BME280;52977;44.816;20.538;2023-07-22T11:15:15;99714.56;;;25.66;79.79
66176;BME280;52977;44.816;20.538;2023-07-22T11:17:41;99679.28;;;25.52;81.12
66176;BME280;52977;44.816;20.538;2023-07-22T11:20:07;99713.16;;;25.78;80.27
66176;BME280;52977;44.816;20.538;2023-07-22T11:22:33;99711.88;;;25.83;82.37
66176;BME280;52977;44.816;20.538;2023-07-22T11:24:59;99719.53;;;26.02;80.91
66176;BME280;52977;44.816;20.538;2023-07-22T11:27:26;99651.06;;;25.67;79.52
66176;BME280;52977;44.816;20.538;2023-07-22T11:29:52;99716.34;;;26.24;80.71
66176;BME280;52977;44.816;20.538;2023-07-22T11:32:19;99715.00;;;26.32;80.00
66176;BME280;52977;44.816;20.538;2023-07-22T11:34:51;99708.66;;;26.28;77.17
66176;BME280;52977;44.816;20.538;2023-07-22T11:37:18;99709.75;;;26.34;78.11
66176;BME280;52977;44.816;20.538;2023-07-22T11:39:44;99699.78;;;26.33;78.26
66176;BME280;52977;44.816;20.538;2023-07-22T11:42:10;99709.53;;;26.45;76.60
66176;BME280;52977;44.816;20.538;2023-07-22T11:44:37;99717.44;;;26.50;76.95
66176;BME280;52977;44.816;20.538;2023-07-22T11:47:05;99716.13;;;26.55;77.96
66176;BME280;52977;44.816;20.538;2023-07-22T11:49:40;99707.28;;;26.56;78.26
66176;BME280;52977;44.816;20.538;2023-07-22T11:52:09;99706.28;;;26.67;78.02
66176;BME280;52977;44.816;20.538;2023-07-22T11:54:39;99700.56;;;26.74;78.28
66176;BME280;52977;44.816;20.538;2023-07-22T11:57:15;99716.16;;;26.91;75.34
66176;BME280;52977;44.816;20.538;2023-07-22T11:59:46;99705.69;;;26.95;74.18
66176;BME280;52977;44.816;20.538;2023-07-22T12:02:14;99680.16;;;26.73;74.31
66176;BME280;52977;44.816;20.538;2023-07-22T12:04:41;99716.81;;;26.99;74.88
66176;BME280;52977;44.816;20.538;2023-07-22T12:07:06;99683.38;;;26.92;74.59
66176;BME280;52977;44.816;20.538;2023-07-22T12:09:32;99704.03;;;26.98;75.32
66176;BME280;52977;44.816;20.538;2023-07-22T12:11:59;99709.78;;;26.91;74.81
66176;BME280;52977;44.816;20.538;2023-07-22T12:14:34;99640.13;;;26.56;76.36
66176;BME280;52977;44.816;20.538;2023-07-22T12:17:02;99692.88;;;26.94;74.89
66176;BME280;52977;44.816;20.538;2023-07-22T12:19:29;99685.56;;;27.01;75.59
66176;BME280;52977;44.816;20.538;2023-07-22T12:21:56;99694.00;;;27.17;75.00
66176;BME280;52977;44.816;20.538;2023-07-22T12:24:22;99669.72;;;27.10;73.94
66176;BME280;52977;44.816;20.538;2023-07-22T12:26:48;99666.94;;;27.10;72.74
66176;BME280;52977;44.816;20.538;2023-07-22T12:29:14;99693.59;;;27.35;72.48
66176;BME280;52977;44.816;20.538;2023-07-22T12:31:40;99669.50;;;27.38;71.97
66176;BME280;52977;44.816;20.538;2023-07-22T12:34:06;99693.41;;;27.59;71.52
66176;BME280;52977;44.816;20.538;2023-07-22T12:36:33;99680.34;;;27.52;69.99
66176;BME280;52977;44.816;20.538;2023-07-22T12:38:59;99687.06;;;27.71;70.73
66176;BME280;52977;44.816;20.538;2023-07-22T12:41:25;99686.19;;;27.74;71.64
66176;BME280;52977;44.816;20.538;2023-07-22T12:43:51;99676.13;;;27.77;71.14
66176;BME280;52977;44.816;20.538;2023-07-22T12:46:18;99671.47;;;27.87;69.98
66176;BME280;52977;44.816;20.538;2023-07-22T12:48:44;99666.34;;;27.98;68.59